Time;durP1;ratioP1;P1;durP2;ratioP2;P2;SDS_P1;SDS_P2;PMS_P1;PMS_P2;Temp;Humidity;BMP_temperature;BMP_pressure;BME280_temperature;BME280_humidity;BME280_pressure;Samples;Min_cycle;Max_cycle;Signal;HPM_P1;HPM_P2
2022/09/10 00:00:07;;;;;;;2.63;1.35;;;;;;;;;;343597;28;1324;-81
2022/09/10 00:00:18;;;;;;;3.08;1.10;;;;;;;;;;344025;28;973;-81
2022/09/10 00:00:29;;;;;;;4.57;1.20;;;;;;;;;;345224;28;1334;-80
2022/09/10 00:00:41;;;;;;;5.20;1.33;;;;;;;;;;345592;28;820;-81
2022/09/10 00:00:53;;;;;;;3.90;1.40;;;;;;;;;;345389;28;855;-81
2022/09/10 00:01:03;;;;;;;4.15;1.45;;;;;;;;;;344143;28;891;-81
2022/09/10 00:01:18;;;;;;;3.73;1.40;;;;;;;;;;345568;28;820;-81
2022/09/10 00:01:29;;;;;;;3.13;1.50;;;;;;;;;;346806;28;1026;-80
2022/09/10 00:01:40;;;;;;;3.13;1.40;;;;;;;;;;342876;28;1399;-81
2022/09/10 00:01:50;;;;;;;3.65;1.40;;;;;;;;;;343675;28;1265;-81
2022/09/10 00:02:01;;;;;;;2.40;1.10;;;;;;;;;;343949;28;820;-81
2022/09/10 00:02:11;;;;;;;2.30;1.30;;;;;;;;;;346753;28;1228;-83
2022/09/10 00:02:22;;;;;;;2.63;1.30;;;;;;;;;;346557;28;942;-81
2022/09/10 00:02:32;;;;;;;3.20;1.42;;;;;;;;;;345433;28;1166;-81
2022/09/10 00:02:44;;;;;;;2.87;1.10;;;;;;;;;;344031;28;1914;-78
2022/09/10 00:02:54;;;;;;;2.60;1.15;;;;;;;;;;343976;28;852;-79
2022/09/10 00:03:05;;;;;;;2.15;1.10;;;;;;;;;;343965;28;1172;-79
2022/09/10 00:03:15;;;;;;;2.23;1.20;;;;;;;;;;346733;28;1184;-81
2022/09/10 00:03:26;;;;;;;2.17;1.10;;;;;;;;;;346394;28;1409;-79
2022/09/10 00:03:36;;;;;;;2.90;1.30;;;;;;;;;;346745;28;1326;-79
2022/09/10 00:03:50;;;;;;;2.90;1.40;;;;;;;;;;345201;28;1301;-80
2022/09/10 00:04:00;;;;;;;2.55;1.48;;;;;;;;;;345424;28;1116;-81
2022/09/10 00:04:12;;;;;;;2.23;1.40;;;;;;;;;;346935;28;796;-79
2022/09/10 00:04:23;;;;;;;3.90;1.25;;;;;;;;;;345060;28;1607;-79
2022/09/10 00:04:33;;;;;;;3.92;1.05;;;;;;;;;;346780;28;1247;-79
2022/09/10 00:04:44;;;;;;;4.07;1.00;;;;;;;;;;348095;28;1419;-79
2022/09/10 00:04:54;;;;;;;2.78;1.08;;;;;;;;;;343864;28;1377;-80
2022/09/10 00:05:05;;;;;;;3.50;1.50;;;;;;;;;;344071;28;851;-79
2022/09/10 00:05:16;;;;;;;4.22;1.60;;;;;;;;;;345285;28;911;-81
2022/09/10 00:05:27;;;;;;;4.22;1.60;;;;;;;;;;345211;28;875;-80
2022/09/10 00:05:42;;;;;;;3.60;1.30;;;;;;;;;;345355;28;859;-82
2022/09/10 00:05:52;;;;;;;3.45;1.23;;;;;;;;;;345346;28;910;-83
2022/09/10 00:06:03;;;;;;;2.38;1.15;;;;;;;;;;346811;28;949;-81
2022/09/10 00:06:14;;;;;;;2.30;1.20;;;;;;;;;;346834;28;764;-81
2022/09/10 00:06:26;;;;;;;2.53;1.30;;;;;;;;;;345205;28;947;-81
2022/09/10 00:06:37;;;;;;;2.58;1.40;;;;;;;;;;346769;28;899;-82
2022/09/10 00:06:48;;;;;;;2.67;1.48;;;;;;;;;;345481;28;848;-82
2022/09/10 00:06:59;;;;;;;2.30;1.20;;;;;;;;;;343958;28;1800;-81
2022/09/10 00:07:10;;;;;;;2.33;1.10;;;;;;;;;;346708;28;1215;-81
2022/09/10 00:07:21;;;;;;;2.42;1.20;;;;;;;;;;346702;28;1240;-83
2022/09/10 00:07:32;;;;;;;2.00;1.17;;;;;;;;;;346575;28;1097;-83
2022/09/10 00:07:43;;;;;;;2.40;1.20;;;;;;;;;;345684;28;1124;-81
2022/09/10 00:07:53;;;;;;;2.95;1.25;;;;;;;;;;345367;28;851;-82
2022/09/10 00:08:05;;;;;;;3.30;1.30;;;;;;;;;;346693;28;1227;-81
2022/09/10 00:08:17;;;;;;;3.20;1.30;;;;;;;;;;345555;28;1018;-81
2022/09/10 00:08:27;;;;;;;2.35;1.15;;;;;;;;;;346692;28;957;-81
2022/09/10 00:08:38;;;;;;;2.17;0.98;;;;;;;;;;346879;28;800;-81
2022/09/10 00:08:48;;;;;;;1.83;0.90;;;;;;;;;;345328;28;1224;-81
2022/09/10 00:08:59;;;;;;;3.88;1.10;;;;;;;;;;344501;28;792;-81
2022/09/10 00:09:10;;;;;;;3.72;1.20;;;;;;;;;;345412;28;1385;-82
2022/09/10 00:09:21;;;;;;;3.40;1.17;;;;;;;;;;345460;28;666;-81
2022/09/10 00:09:31;;;;;;;2.00;1.10;;;;;;;;;;346563;28;938;-81
2022/09/10 00:09:42;;;;;;;1.88;1.00;;;;;;;;;;344032;28;902;-81
2022/09/10 00:09:52;;;;;;;1.77;1.10;;;;;;;;;;344008;28;957;-82
2022/09/10 00:10:03;;;;;;;2.28;1.10;;;;;;;;;;345447;28;828;-83
2022/09/10 00:10:14;;;;;;;2.67;1.10;;;;;;;;;;345521;28;895;-80
2022/09/10 00:10:25;;;;;;;4.40;1.13;;;;;;;;;;345481;28;859;-81
2022/09/10 00:10:45;;;;;;;4.70;1.25;;;;;;;;;;345548;28;859;-81
2022/09/10 00:10:56;;;;;;;3.92;1.08;;;;;;;;;;345355;28;1068;-81
2022/09/10 00:11:08;;;;;;;2.90;0.90;;;;;;;;;;345732;28;1377;-81
2022/09/10 00:11:19;;;;;;;3.08;1.13;;;;;;;;;;345355;28;1300;-81
2022/09/10 00:11:30;;;;;;;2.58;1.20;;;;;;;;;;343907;28;846;-81
2022/09/10 00:11:41;;;;;;;3.15;1.20;;;;;;;;;;345433;28;844;-81
2022/09/10 00:11:52;;;;;;;2.47;1.13;;;;;;;;;;346748;28;839;-80
2022/09/10 00:12:02;;;;;;;3.17;1.30;;;;;;;;;;346703;28;1325;-81
2022/09/10 00:12:13;;;;;;;3.03;1.23;;;;;;;;;;346768;28;814;-81
2022/09/10 00:12:24;;;;;;;2.72;1.20;;;;;;;;;;346863;28;847;-80
2022/09/10 00:12:35;;;;;;;3.03;1.20;;;;;;;;;;346240;28;1170;-82
2022/09/10 00:12:50;;;;;;;2.97;1.00;;;;;;;;;;346829;28;862;-82
2022/09/10 00:13:00;;;;;;;2.78;0.82;;;;;;;;;;346686;28;1262;-80
2022/09/10 00:13:11;;;;;;;1.80;1.00;;;;;;;;;;345381;28;1307;-80
2022/09/10 00:13:21;;;;;;;2.30;1.00;;;;;;;;;;346708;28;1292;-81
2022/09/10 00:13:32;;;;;;;2.53;1.10;;;;;;;;;;347480;28;1189;-81
2022/09/10 00:13:43;;;;;;;2.53;0.90;;;;;;;;;;345115;28;1360;-81
2022/09/10 00:13:53;;;;;;;2.17;1.02;;;;;;;;;;346495;28;1180;-82
2022/09/10 00:14:09;;;;;;;2.00;1.00;;;;;;;;;;345428;28;1026;-81
2022/09/10 00:14:21;;;;;;;1.92;0.98;;;;;;;;;;345324;28;838;-81
2022/09/10 00:14:31;;;;;;;1.75;0.82;;;;;;;;;;346659;28;1001;-81
2022/09/10 00:14:42;;;;;;;1.87;0.80;;;;;;;;;;346805;28;1267;-81
2022/09/10 00:14:53;;;;;;;2.05;0.80;;;;;;;;;;343999;28;835;-81
2022/09/10 00:15:04;;;;;;;1.85;0.80;;;;;;;;;;344176;28;887;-81
2022/09/10 00:15:14;;;;;;;1.70;0.73;;;;;;;;;;345435;28;1334;-81
2022/09/10 00:15:25;;;;;;;1.53;0.83;;;;;;;;;;345444;28;879;-81
2022/09/10 00:15:42;;;;;;;1.47;0.87;;;;;;;;;;347847;28;1171;-81
2022/09/10 00:15:53;;;;;;;1.73;0.88;;;;;;;;;;346595;28;825;-81
2022/09/10 00:16:08;;;;;;;1.90;0.88;;;;;;;;;;345521;28;954;-81
2022/09/10 00:16:18;;;;;;;1.67;0.90;;;;;;;;;;343864;28;709;-81
2022/09/10 00:16:29;;;;;;;1.37;0.83;;;;;;;;;;345044;28;789;-82
2022/09/10 00:16:40;;;;;;;1.63;0.93;;;;;;;;;;346735;28;1366;-81
2022/09/10 00:16:50;;;;;;;2.10;0.98;;;;;;;;;;343983;28;988;-78
2022/09/10 00:17:01;;;;;;;2.40;1.07;;;;;;;;;;344063;28;1505;-80
2022/09/10 00:17:12;;;;;;;5.93;1.40;;;;;;;;;;345279;28;1345;-81
2022/09/10 00:17:23;;;;;;;5.30;1.40;;;;;;;;;;346772;28;882;-83
2022/09/10 00:17:35;;;;;;;4.82;1.30;;;;;;;;;;346630;28;862;-84
2022/09/10 00:17:46;;;;;;;1.25;0.90;;;;;;;;;;344142;28;847;-82
2022/09/10 00:17:56;;;;;;;1.65;0.77;;;;;;;;;;343930;28;1268;-83
2022/09/10 00:18:08;;;;;;;2.73;0.87;;;;;;;;;;345519;28;894;-82
2022/09/10 00:18:19;;;;;;;2.80;0.85;;;;;;;;;;344089;28;887;-81
2022/09/10 00:18:30;;;;;;;2.30;0.90;;;;;;;;;;342454;28;1387;-81
2022/09/10 00:18:41;;;;;;;1.70;0.90;;;;;;;;;;344163;28;946;-81
2022/09/10 00:18:51;;;;;;;1.45;0.80;;;;;;;;;;345176;28;1619;-81
2022/09/10 00:19:02;;;;;;;1.57;0.80;;;;;;;;;;345557;28;898;-81
2022/09/10 00:19:13;;;;;;;2.30;0.80;;;;;;;;;;345258;28;1230;-81
2022/09/10 00:19:24;;;;;;;2.15;0.70;;;;;;;;;;345403;28;843;-81
2022/09/10 00:19:34;;;;;;;1.55;0.60;;;;;;;;;;346583;28;831;-80
2022/09/10 00:19:45;;;;;;;1.37;0.60;;;;;;;;;;346815;28;894;-79
2022/09/10 00:19:56;;;;;;;1.75;0.70;;;;;;;;;;346419;28;1270;-82
2022/09/10 00:20:08;;;;;;;1.63;0.73;;;;;;;;;;346691;28;862;-81
2022/09/10 00:20:18;;;;;;;1.67;0.80;;;;;;;;;;345436;28;938;-81
2022/09/10 00:20:29;;;;;;;1.70;0.90;;;;;;;;;;344101;28;973;-81
2022/09/10 00:20:43;;;;;;;2.03;1.00;;;;;;;;;;345382;28;1184;-80
2022/09/10 00:20:54;;;;;;;2.85;1.00;;;;;;;;;;346658;28;930;-80
2022/09/10 00:21:07;;;;;;;3.10;0.80;;;;;;;;;;346903;28;851;-81
2022/09/10 00:21:19;;;;;;;3.80;0.80;;;;;;;;;;345379;28;1339;-83
2022/09/10 00:21:30;;;;;;;4.95;1.25;;;;;;;;;;345300;28;911;-82
2022/09/10 00:21:40;;;;;;;4.80;1.30;;;;;;;;;;346528;28;1271;-83
2022/09/10 00:21:51;;;;;;;2.95;1.10;;;;;;;;;;347892;28;863;-81
2022/09/10 00:22:01;;;;;;;0.80;0.63;;;;;;;;;;348262;28;871;-81
2022/09/10 00:22:12;;;;;;;0.98;0.70;;;;;;;;;;348242;28;834;-81
2022/09/10 00:22:23;;;;;;;1.80;0.85;;;;;;;;;;345401;28;922;-81
2022/09/10 00:22:33;;;;;;;2.97;1.03;;;;;;;;;;346655;28;827;-82
2022/09/10 00:22:44;;;;;;;3.42;1.10;;;;;;;;;;346650;28;1975;-82
2022/09/10 00:22:54;;;;;;;3.40;1.10;;;;;;;;;;345298;28;1164;-81
2022/09/10 00:23:05;;;;;;;2.97;1.10;;;;;;;;;;344200;28;898;-81
2022/09/10 00:23:19;;;;;;;2.13;1.07;;;;;;;;;;346630;28;1188;-82
2022/09/10 00:23:30;;;;;;;2.58;1.20;;;;;;;;;;344041;28;1376;-81
2022/09/10 00:23:44;;;;;;;2.53;1.20;;;;;;;;;;345350;28;1295;-83
2022/09/10 00:23:55;;;;;;;3.92;1.17;;;;;;;;;;345364;28;912;-81
2022/09/10 00:24:05;;;;;;;3.17;1.03;;;;;;;;;;345545;28;875;-83
2022/09/10 00:24:16;;;;;;;2.75;1.17;;;;;;;;;;345495;28;843;-82
2022/09/10 00:24:26;;;;;;;2.50;1.23;;;;;;;;;;345419;28;879;-82
2022/09/10 00:24:37;;;;;;;2.40;1.33;;;;;;;;;;346516;28;1333;-81
2022/09/10 00:24:48;;;;;;;2.08;1.20;;;;;;;;;;346486;28;1348;-82
2022/09/10 00:24:58;;;;;;;2.70;1.00;;;;;;;;;;348265;28;819;-83
2022/09/10 00:25:09;;;;;;;2.55;0.90;;;;;;;;;;346904;28;886;-82
2022/09/10 00:25:19;;;;;;;2.33;0.80;;;;;;;;;;348094;28;905;-82
2022/09/10 00:25:31;;;;;;;2.65;0.90;;;;;;;;;;348249;28;831;-83
2022/09/10 00:25:41;;;;;;;2.92;0.90;;;;;;;;;;348219;28;839;-82
2022/09/10 00:25:53;;;;;;;2.25;0.80;;;;;;;;;;347468;28;1079;-81
2022/09/10 00:26:20;;;;;;;1.35;0.75;;;;;;;;;;345456;28;1208;-81
2022/09/10 00:26:34;;;;;;;1.58;0.90;;;;;;;;;;348032;28;855;-81
2022/09/10 00:26:44;;;;;;;1.70;0.98;;;;;;;;;;344008;28;1462;-83
2022/09/10 00:26:55;;;;;;;2.27;1.00;;;;;;;;;;343981;28;1168;-82
2022/09/10 00:27:05;;;;;;;2.25;1.00;;;;;;;;;;345052;28;880;-81
2022/09/10 00:27:16;;;;;;;2.57;1.10;;;;;;;;;;344037;28;1229;-81
2022/09/10 00:27:26;;;;;;;1.98;1.00;;;;;;;;;;344946;28;903;-81
2022/09/10 00:27:37;;;;;;;2.80;1.10;;;;;;;;;;343807;28;1149;-81
2022/09/10 00:27:47;;;;;;;2.63;1.02;;;;;;;;;;345271;28;1183;-82
2022/09/10 00:27:59;;;;;;;2.80;0.97;;;;;;;;;;347108;28;1196;-83
2022/09/10 00:28:10;;;;;;;2.03;1.00;;;;;;;;;;346336;28;1235;-81
2022/09/10 00:28:21;;;;;;;2.20;0.90;;;;;;;;;;345312;28;1304;-82
2022/09/10 00:28:31;;;;;;;2.30;0.93;;;;;;;;;;344041;28;1318;-82
2022/09/10 00:28:42;;;;;;;2.42;0.88;;;;;;;;;;343734;28;1329;-82
2022/09/10 00:28:53;;;;;;;2.50;1.27;;;;;;;;;;345281;28;1443;-81
2022/09/10 00:29:05;;;;;;;2.58;1.33;;;;;;;;;;345422;28;1478;-81
2022/09/10 00:29:16;;;;;;;2.42;1.13;;;;;;;;;;346766;28;1346;-82
2022/09/10 00:29:26;;;;;;;2.13;1.05;;;;;;;;;;345408;28;831;-83
2022/09/10 00:29:37;;;;;;;2.07;1.07;;;;;;;;;;346527;28;1227;-81
2022/09/10 00:29:51;;;;;;;2.10;1.00;;;;;;;;;;345365;28;1464;-83
2022/09/10 00:30:02;;;;;;;2.70;1.00;;;;;;;;;;343906;28;1304;-83
2022/09/10 00:30:13;;;;;;;2.72;1.05;;;;;;;;;;344085;28;903;-82
2022/09/10 00:30:25;;;;;;;3.63;1.17;;;;;;;;;;342596;28;1196;-81
2022/09/10 00:30:43;;;;;;;3.13;1.10;;;;;;;;;;343908;28;1600;-81
2022/09/10 00:30:54;;;;;;;2.75;1.05;;;;;;;;;;345215;28;919;-81
2022/09/10 00:31:04;;;;;;;2.65;0.90;;;;;;;;;;346793;28;1253;-81
2022/09/10 00:31:15;;;;;;;2.38;0.90;;;;;;;;;;343918;28;1230;-82
2022/09/10 00:31:26;;;;;;;1.90;0.90;;;;;;;;;;345402;28;848;-82
2022/09/10 00:31:36;;;;;;;2.20;1.00;;;;;;;;;;345182;28;812;-82
2022/09/10 00:31:47;;;;;;;2.15;1.02;;;;;;;;;;345410;28;1507;-81
2022/09/10 00:31:58;;;;;;;2.13;1.10;;;;;;;;;;344094;28;835;-82
2022/09/10 00:32:08;;;;;;;2.10;1.17;;;;;;;;;;345246;28;1189;-80
2022/09/10 00:32:23;;;;;;;3.17;1.05;;;;;;;;;;349470;28;954;-82
2022/09/10 00:32:33;;;;;;;3.38;1.00;;;;;;;;;;346762;28;930;-82
2022/09/10 00:32:44;;;;;;;1.50;0.93;;;;;;;;;;343923;28;816;-82
2022/09/10 00:32:55;;;;;;;1.35;0.90;;;;;;;;;;346711;28;1199;-81
2022/09/10 00:33:05;;;;;;;1.30;0.90;;;;;;;;;;345517;28;803;-81
2022/09/10 00:33:17;;;;;;;1.40;0.90;;;;;;;;;;345486;28;808;-82
2022/09/10 00:33:28;;;;;;;1.40;0.90;;;;;;;;;;345144;28;990;-82
2022/09/10 00:33:40;;;;;;;1.17;0.90;;;;;;;;;;343690;28;1417;-82
2022/09/10 00:33:51;;;;;;;1.23;0.82;;;;;;;;;;345355;28;911;-81
2022/09/10 00:34:02;;;;;;;1.35;0.80;;;;;;;;;;345061;28;1127;-82
2022/09/10 00:34:13;;;;;;;1.63;0.88;;;;;;;;;;345525;28;925;-83
2022/09/10 00:34:23;;;;;;;1.63;1.00;;;;;;;;;;346674;28;905;-83
2022/09/10 00:34:34;;;;;;;1.50;1.00;;;;;;;;;;346851;28;843;-81
2022/09/10 00:34:45;;;;;;;1.70;1.00;;;;;;;;;;344913;28;887;-81
2022/09/10 00:34:56;;;;;;;1.92;0.93;;;;;;;;;;345204;28;911;-81
2022/09/10 00:35:07;;;;;;;2.67;1.00;;;;;;;;;;345473;28;870;-81
2022/09/10 00:35:18;;;;;;;3.40;0.93;;;;;;;;;;345501;28;799;-81
2022/09/10 00:35:31;;;;;;;3.10;0.90;;;;;;;;;;345500;28;859;-82
2022/09/10 00:35:42;;;;;;;1.05;0.73;;;;;;;;;;347786;28;875;-83
2022/09/10 00:35:53;;;;;;;1.95;0.90;;;;;;;;;;346808;28;930;-81
2022/09/10 00:36:04;;;;;;;2.20;0.93;;;;;;;;;;345286;28;1385;-81
2022/09/10 00:36:23;;;;;;;2.83;1.05;;;;;;;;;;345530;28;835;-81
2022/09/10 00:36:35;;;;;;;3.08;1.00;;;;;;;;;;344065;28;1629;-81
2022/09/10 00:36:46;;;;;;;2.40;0.90;;;;;;;;;;344012;28;1443;-83
2022/09/10 00:36:58;;;;;;;2.37;0.83;;;;;;;;;;344042;28;1361;-81
2022/09/10 00:37:08;;;;;;;2.20;1.08;;;;;;;;;;346763;28;1247;-81
2022/09/10 00:37:19;;;;;;;2.60;1.08;;;;;;;;;;348152;28;890;-81
2022/09/10 00:37:29;;;;;;;2.75;1.00;;;;;;;;;;348259;28;874;-81
2022/09/10 00:37:40;;;;;;;2.27;0.73;;;;;;;;;;345163;28;918;-81
2022/09/10 00:37:50;;;;;;;2.13;0.82;;;;;;;;;;343862;28;1323;-83
2022/09/10 00:38:01;;;;;;;1.93;0.90;;;;;;;;;;344063;28;1132;-82
2022/09/10 00:38:12;;;;;;;2.30;0.90;;;;;;;;;;342396;28;1343;-81
2022/09/10 00:38:22;;;;;;;2.10;0.90;;;;;;;;;;345172;28;1306;-83
2022/09/10 00:38:33;;;;;;;1.70;0.80;;;;;;;;;;346751;28;1381;-81
2022/09/10 00:38:43;;;;;;;1.95;0.90;;;;;;;;;;346449;28;859;-81
2022/09/10 00:38:54;;;;;;;2.30;0.93;;;;;;;;;;346850;28;901;-81
2022/09/10 00:39:07;;;;;;;2.20;0.90;;;;;;;;;;345535;28;788;-81
2022/09/10 00:39:17;;;;;;;2.38;0.90;;;;;;;;;;343989;28;1382;-81
2022/09/10 00:39:28;;;;;;;2.95;1.00;;;;;;;;;;344140;28;926;-81
2022/09/10 00:39:38;;;;;;;3.03;1.02;;;;;;;;;;345044;28;1279;-81
2022/09/10 00:39:49;;;;;;;2.43;0.90;;;;;;;;;;346701;28;897;-82
2022/09/10 00:40:00;;;;;;;1.67;0.90;;;;;;;;;;348062;28;1298;-81
2022/09/10 00:40:11;;;;;;;1.77;0.90;;;;;;;;;;345416;28;1243;-81
2022/09/10 00:40:22;;;;;;;1.98;1.00;;;;;;;;;;346811;28;859;-81
2022/09/10 00:40:32;;;;;;;1.23;0.73;;;;;;;;;;345398;28;1159;-81
2022/09/10 00:40:43;;;;;;;2.03;0.70;;;;;;;;;;346145;28;1256;-81
2022/09/10 00:40:53;;;;;;;2.00;0.70;;;;;;;;;;345067;28;931;-81
2022/09/10 00:41:06;;;;;;;1.90;0.80;;;;;;;;;;344977;28;1556;-81
2022/09/10 00:41:18;;;;;;;1.38;0.82;;;;;;;;;;345390;28;1227;-81
2022/09/10 00:41:29;;;;;;;1.73;0.98;;;;;;;;;;346884;28;914;-81
2022/09/10 00:41:41;;;;;;;2.20;0.90;;;;;;;;;;346356;28;1215;-81
2022/09/10 00:41:51;;;;;;;2.33;0.88;;;;;;;;;;346642;28;1474;-81
2022/09/10 00:42:02;;;;;;;1.48;0.70;;;;;;;;;;345074;28;1452;-82
2022/09/10 00:42:12;;;;;;;1.35;0.73;;;;;;;;;;343520;28;1278;-82
2022/09/10 00:42:23;;;;;;;1.30;0.90;;;;;;;;;;345304;28;1374;-82
2022/09/10 00:42:33;;;;;;;1.15;0.80;;;;;;;;;;345326;28;1295;-81
2022/09/10 00:42:44;;;;;;;2.50;0.70;;;;;;;;;;346457;28;1910;-81
2022/09/10 00:42:55;;;;;;;3.00;0.60;;;;;;;;;;345259;28;1200;-81
2022/09/10 00:43:17;;;;;;;3.13;0.60;;;;;;;;;;344098;28;1161;-81
2022/09/10 00:43:43;;;;;;;1.65;0.90;;;;;;;;;;345431;28;855;-81
2022/09/10 00:43:58;;;;;;;2.63;0.93;;;;;;;;;;342584;28;939;-81
2022/09/10 00:44:38;;;;;;;2.30;1.00;;;;;;;;;;344010;28;895;-81
2022/09/10 00:44:56;;;;;;;1.65;0.80;;;;;;;;;;344947;28;1470;-81
2022/09/10 00:45:07;;;;;;;1.10;0.68;;;;;;;;;;346818;28;911;-80
2022/09/10 00:45:22;;;;;;;1.25;0.75;;;;;;;;;;346740;28;958;-82
2022/09/10 00:45:35;;;;;;;1.70;0.80;;;;;;;;;;343976;28;990;-81
2022/09/10 00:45:48;;;;;;;2.20;0.90;;;;;;;;;;342338;28;1308;-83
2022/09/10 00:45:59;;;;;;;2.10;0.90;;;;;;;;;;342724;28;893;-81
2022/09/10 00:46:10;;;;;;;2.40;0.98;;;;;;;;;;343919;28;1212;-81
2022/09/10 00:46:41;;;;;;;2.65;1.05;;;;;;;;;;344958;28;1230;-83
2022/09/10 00:46:51;;;;;;;2.92;1.00;;;;;;;;;;345269;28;883;-82
2022/09/10 00:47:03;;;;;;;2.20;0.82;;;;;;;;;;342643;28;1366;-81
2022/09/10 00:47:35;;;;;;;1.73;0.93;;;;;;;;;;344157;28;891;-83
2022/09/10 00:47:46;;;;;;;2.10;1.10;;;;;;;;;;345170;28;831;-82
2022/09/10 00:47:59;;;;;;;2.38;1.20;;;;;;;;;;346784;28;844;-82
2022/09/10 00:48:17;;;;;;;2.38;1.20;;;;;;;;;;342718;28;1252;-81
2022/09/10 00:48:27;;;;;;;2.65;1.10;;;;;;;;;;343892;28;1400;-82
2022/09/10 00:48:38;;;;;;;2.22;0.98;;;;;;;;;;345429;28;911;-82
2022/09/10 00:48:48;;;;;;;2.13;0.90;;;;;;;;;;344971;28;1386;-81
2022/09/10 00:49:02;;;;;;;2.15;0.98;;;;;;;;;;345336;28;1467;-82
2022/09/10 00:49:19;;;;;;;2.75;1.10;;;;;;;;;;345392;28;856;-83
2022/09/10 00:49:38;;;;;;;2.50;1.00;;;;;;;;;;345294;28;938;-82
2022/09/10 00:49:53;;;;;;;2.05;1.10;;;;;;;;;;345109;28;856;-82
2022/09/10 00:50:16;;;;;;;2.55;1.30;;;;;;;;;;342687;28;1429;-81
2022/09/10 00:50:29;;;;;;;3.50;1.25;;;;;;;;;;342124;28;1209;-81
2022/09/10 00:50:40;;;;;;;2.88;1.27;;;;;;;;;;344723;28;1231;-78
2022/09/10 00:50:51;;;;;;;3.78;1.25;;;;;;;;;;345027;28;910;-79
2022/09/10 00:51:03;;;;;;;4.03;1.35;;;;;;;;;;348075;28;1330;-79
2022/09/10 00:51:13;;;;;;;3.28;1.27;;;;;;;;;;346868;28;906;-80
2022/09/10 00:51:25;;;;;;;3.20;1.30;;;;;;;;;;345269;28;1183;-81
2022/09/10 00:51:35;;;;;;;2.60;1.23;;;;;;;;;;345259;28;1246;-81
2022/09/10 00:51:46;;;;;;;2.72;1.25;;;;;;;;;;343639;28;1280;-83
2022/09/10 00:51:56;;;;;;;2.27;1.13;;;;;;;;;;344072;28;903;-80
2022/09/10 00:52:07;;;;;;;1.85;0.90;;;;;;;;;;345401;28;833;-81
2022/09/10 00:52:17;;;;;;;2.53;0.90;;;;;;;;;;345397;28;978;-82
2022/09/10 00:52:28;;;;;;;3.83;1.08;;;;;;;;;;344806;28;1240;-81
2022/09/10 00:52:38;;;;;;;4.53;1.13;;;;;;;;;;345470;28;804;-81
2022/09/10 00:52:50;;;;;;;4.38;1.05;;;;;;;;;;343809;28;784;-81
2022/09/10 00:53:03;;;;;;;3.17;1.10;;;;;;;;;;343975;28;1410;-80
2022/09/10 00:53:15;;;;;;;2.40;1.00;;;;;;;;;;345445;28;851;-81
2022/09/10 00:53:26;;;;;;;2.78;1.05;;;;;;;;;;346739;28;860;-82
2022/09/10 00:53:36;;;;;;;2.88;1.20;;;;;;;;;;346696;28;1576;-81
2022/09/10 00:53:47;;;;;;;2.30;1.20;;;;;;;;;;346575;28;808;-83
2022/09/10 00:53:57;;;;;;;1.87;1.17;;;;;;;;;;345339;28;1173;-81
2022/09/10 00:54:08;;;;;;;2.08;1.23;;;;;;;;;;346717;28;1176;-82
2022/09/10 00:54:19;;;;;;;2.87;1.37;;;;;;;;;;345159;28;1207;-83
2022/09/10 00:54:30;;;;;;;3.60;1.48;;;;;;;;;;346595;28;1146;-81
2022/09/10 00:54:41;;;;;;;3.28;1.38;;;;;;;;;;345453;28;855;-81
2022/09/10 00:54:51;;;;;;;2.88;1.33;;;;;;;;;;345058;28;1329;-81
2022/09/10 00:55:02;;;;;;;3.10;1.30;;;;;;;;;;346712;28;1176;-81
2022/09/10 00:55:13;;;;;;;3.65;1.48;;;;;;;;;;348236;28;946;-81
2022/09/10 00:55:23;;;;;;;3.50;1.47;;;;;;;;;;345383;28;914;-81
2022/09/10 00:55:34;;;;;;;2.73;1.33;;;;;;;;;;345276;28;1338;-82
2022/09/10 00:55:49;;;;;;;2.55;1.33;;;;;;;;;;349296;28;1393;-83
2022/09/10 00:55:59;;;;;;;4.00;1.60;;;;;;;;;;346724;28;864;-82
2022/09/10 00:56:10;;;;;;;4.60;1.73;;;;;;;;;;346800;28;867;-82
2022/09/10 00:56:20;;;;;;;3.58;1.50;;;;;;;;;;345350;28;894;-81
2022/09/10 00:56:32;;;;;;;2.47;1.23;;;;;;;;;;344256;28;1240;-82
2022/09/10 00:56:42;;;;;;;1.92;1.20;;;;;;;;;;344052;28;1294;-82
2022/09/10 00:56:54;;;;;;;1.70;1.10;;;;;;;;;;343729;28;950;-81
2022/09/10 00:57:07;;;;;;;1.90;1.10;;;;;;;;;;342326;28;1367;-81
2022/09/10 00:57:19;;;;;;;3.20;1.30;;;;;;;;;;342793;28;832;-81
2022/09/10 00:57:29;;;;;;;3.30;1.25;;;;;;;;;;343857;28;1238;-83
2022/09/10 00:57:40;;;;;;;3.00;1.30;;;;;;;;;;342673;28;856;-82
2022/09/10 00:57:53;;;;;;;3.08;1.33;;;;;;;;;;344688;28;1210;-81
2022/09/10 00:58:05;;;;;;;3.08;1.38;;;;;;;;;;345338;28;1041;-81
2022/09/10 00:58:17;;;;;;;3.17;1.27;;;;;;;;;;343997;28;1374;-81
2022/09/10 00:58:27;;;;;;;4.78;1.27;;;;;;;;;;343736;28;1282;-81
2022/09/10 00:58:38;;;;;;;4.07;1.40;;;;;;;;;;344049;28;1493;-81
2022/09/10 00:58:48;;;;;;;4.07;1.45;;;;;;;;;;345248;28;875;-80
2022/09/10 00:59:00;;;;;;;3.73;1.50;;;;;;;;;;345484;28;900;-81
2022/09/10 00:59:10;;;;;;;3.30;1.42;;;;;;;;;;345479;28;899;-83
2022/09/10 00:59:22;;;;;;;2.45;1.27;;;;;;;;;;346694;28;1338;-79
2022/09/10 00:59:32;;;;;;;2.50;1.40;;;;;;;;;;346617;28;1329;-79
2022/09/10 00:59:47;;;;;;;3.67;1.50;;;;;;;;;;348187;28;982;-82
2022/09/10 00:59:59;;;;;;;4.85;1.45;;;;;;;;;;345449;28;935;-80
2022/09/10 01:00:11;;;;;;;4.57;1.33;;;;;;;;;;346814;28;836;-81
2022/09/10 01:00:21;;;;;;;3.03;1.38;;;;;;;;;;345302;28;1252;-81
2022/09/10 01:00:32;;;;;;;2.30;1.20;;;;;;;;;;343897;28;1203;-81
2022/09/10 01:00:42;;;;;;;1.90;1.20;;;;;;;;;;348254;28;796;-81
2022/09/10 01:00:55;;;;;;;2.70;1.20;;;;;;;;;;346432;28;1529;-81
2022/09/10 01:01:06;;;;;;;3.00;1.20;;;;;;;;;;345475;28;867;-81
2022/09/10 01:01:18;;;;;;;2.58;1.10;;;;;;;;;;344105;28;828;-81
2022/09/10 01:01:29;;;;;;;2.60;1.17;;;;;;;;;;343908;28;1352;-81
2022/09/10 01:01:40;;;;;;;3.35;1.45;;;;;;;;;;345384;28;1405;-81
2022/09/10 01:01:51;;;;;;;3.13;1.50;;;;;;;;;;346546;28;969;-81
2022/09/10 01:02:02;;;;;;;2.43;1.50;;;;;;;;;;344123;28;1288;-81
2022/09/10 01:02:13;;;;;;;2.55;1.50;;;;;;;;;;344117;28;840;-83
2022/09/10 01:02:24;;;;;;;3.08;1.50;;;;;;;;;;342429;28;1307;-81
2022/09/10 01:02:35;;;;;;;3.40;1.60;;;;;;;;;;344973;28;1374;-82
2022/09/10 01:02:45;;;;;;;2.95;1.55;;;;;;;;;;346702;28;1906;-82
2022/09/10 01:02:58;;;;;;;2.35;1.52;;;;;;;;;;346490;28;859;-83
2022/09/10 01:03:12;;;;;;;2.78;1.38;;;;;;;;;;348193;28;891;-81
2022/09/10 01:03:22;;;;;;;3.08;1.20;;;;;;;;;;345307;28;903;-81
2022/09/10 01:03:33;;;;;;;2.50;1.17;;;;;;;;;;346704;28;1206;-81
2022/09/10 01:03:44;;;;;;;2.57;1.30;;;;;;;;;;345393;28;1455;-83
2022/09/10 01:03:54;;;;;;;2.45;1.30;;;;;;;;;;345066;28;1180;-81
2022/09/10 01:04:05;;;;;;;2.80;1.40;;;;;;;;;;348148;28;1278;-82
2022/09/10 01:04:16;;;;;;;2.38;1.17;;;;;;;;;;348155;28;887;-82
2022/09/10 01:04:27;;;;;;;2.30;1.30;;;;;;;;;;346177;28;835;-81
2022/09/10 01:04:39;;;;;;;2.75;1.52;;;;;;;;;;345419;28;1306;-81
2022/09/10 01:04:49;;;;;;;2.85;1.60;;;;;;;;;;347788;28;1022;-82
2022/09/10 01:04:59;;;;;;;3.45;1.50;;;;;;;;;;349583;28;973;-81
2022/09/10 01:05:10;;;;;;;3.10;1.33;;;;;;;;;;345879;28;788;-82
2022/09/10 01:05:21;;;;;;;3.80;1.42;;;;;;;;;;345179;28;1375;-82
2022/09/10 01:05:32;;;;;;;4.23;1.47;;;;;;;;;;343978;28;1377;-81
2022/09/10 01:05:44;;;;;;;4.57;1.52;;;;;;;;;;343998;28;1355;-81
2022/09/10 01:05:54;;;;;;;3.95;1.70;;;;;;;;;;343813;28;891;-81
2022/09/10 01:06:05;;;;;;;3.85;1.70;;;;;;;;;;345415;28;1306;-81
2022/09/10 01:06:17;;;;;;;3.42;1.70;;;;;;;;;;345428;28;804;-81
2022/09/10 01:06:27;;;;;;;2.75;1.50;;;;;;;;;;343710;28;904;-81
2022/09/10 01:06:38;;;;;;;2.72;1.50;;;;;;;;;;345317;28;1401;-82
2022/09/10 01:06:50;;;;;;;3.15;1.58;;;;;;;;;;345225;28;892;-82
2022/09/10 01:07:01;;;;;;;3.55;1.73;;;;;;;;;;345474;28;856;-81
2022/09/10 01:07:11;;;;;;;3.40;1.67;;;;;;;;;;345439;28;962;-81
2022/09/10 01:07:22;;;;;;;3.43;1.70;;;;;;;;;;345276;28;891;-81
2022/09/10 01:07:33;;;;;;;3.55;1.52;;;;;;;;;;342753;28;856;-81
2022/09/10 01:07:44;;;;;;;3.60;1.60;;;;;;;;;;344149;28;870;-81
2022/09/10 01:07:56;;;;;;;2.38;1.33;;;;;;;;;;343747;28;1542;-81
2022/09/10 01:08:14;;;;;;;2.50;1.30;;;;;;;;;;346701;28;1319;-81
2022/09/10 01:08:26;;;;;;;3.85;1.27;;;;;;;;;;345246;28;1263;-80
2022/09/10 01:08:36;;;;;;;3.47;1.40;;;;;;;;;;347057;28;1243;-82
2022/09/10 01:08:47;;;;;;;2.73;1.33;;;;;;;;;;348108;28;1153;-82
2022/09/10 01:08:58;;;;;;;2.17;1.30;;;;;;;;;;345089;28;1179;-81
2022/09/10 01:09:08;;;;;;;2.08;1.23;;;;;;;;;;346778;28;1178;-81
2022/09/10 01:09:19;;;;;;;2.03;1.33;;;;;;;;;;343939;28;1375;-82
2022/09/10 01:09:30;;;;;;;3.35;1.50;;;;;;;;;;345359;28;1290;-81
2022/09/10 01:09:40;;;;;;;4.03;1.50;;;;;;;;;;348108;28;1282;-80
2022/09/10 01:09:51;;;;;;;4.07;1.60;;;;;;;;;;346403;28;1211;-81
2022/09/10 01:10:17;;;;;;;3.90;1.58;;;;;;;;;;346889;28;796;-82
2022/09/10 01:10:30;;;;;;;2.40;1.40;;;;;;;;;;346395;28;875;-80
2022/09/10 01:11:05;;;;;;;2.38;1.52;;;;;;;;;;345173;28;1267;-83
2022/09/10 01:11:31;;;;;;;4.00;1.58;;;;;;;;;;345383;28;856;-82
2022/09/10 01:12:02;;;;;;;4.38;1.52;;;;;;;;;;345190;28;1183;-81
2022/09/10 01:12:12;;;;;;;2.97;1.40;;;;;;;;;;345345;28;951;-83
2022/09/10 01:12:44;;;;;;;3.07;1.53;;;;;;;;;;345261;28;1053;-81
2022/09/10 01:13:30;;;;;;;3.28;1.80;;;;;;;;;;347818;28;918;-81
2022/09/10 01:13:54;;;;;;;4.53;2.03;;;;;;;;;;346655;28;1411;-81
2022/09/10 01:14:21;;;;;;;3.33;1.88;;;;;;;;;;345376;28;959;-82
2022/09/10 01:14:50;;;;;;;3.90;1.65;;;;;;;;;;344058;28;943;-82
2022/09/10 01:15:09;;;;;;;4.57;1.52;;;;;;;;;;344578;28;1124;-82
2022/09/10 01:15:47;;;;;;;2.55;1.50;;;;;;;;;;343713;28;1294;-81
2022/09/10 01:16:07;;;;;;;4.00;1.75;;;;;;;;;;345684;28;926;-81